Terminal Aerodrome Forecast
Issued by NWS Bismarck, ND

Home | Current Version | Previous Version | Graphics & Text | Print | Product List | Glossary On
Versions: 1 2 3 4 5 6 7 8 9 10 11 12 13 14 15 16 17 18 19
997
FTUS43 KBIS 201721
TAFBIS
TAF
KBIS 201721Z 2018/2118 23014G24KT P6SM SKC
     FM210100 17009KT P6SM SCT250
     FM210600 16010KT P6SM FEW140 SCT250 WS020/19040KT
     FM211000 14009KT P6SM BKN120 WS015/20030KT
     FM211200 14008KT P6SM BKN100
     FM211700 17012G20KT P6SM SCT200=

USA.gov is the U.S. government's official web portal to all federal, state and local government web resources and services.